createdAt,value
2017-12-14T00:01:39.090Z,0.10
2017-12-14T00:04:11.640Z,0.10
2017-12-14T00:06:44.160Z,0.20
2017-12-14T00:09:16.678Z,0.20
2017-12-14T00:11:49.953Z,0.20
2017-12-14T00:14:22.792Z,0.20
2017-12-14T00:16:56.263Z,0.20
2017-12-14T00:19:29.233Z,0.20
2017-12-14T00:22:02.125Z,0.20
2017-12-14T00:24:34.481Z,0.30
2017-12-14T00:27:07.102Z,0.30
2017-12-14T00:29:40.209Z,0.30
2017-12-14T00:32:12.713Z,0.30
2017-12-14T00:34:45.239Z,0.40
2017-12-14T00:37:18.506Z,0.50
2017-12-14T00:39:51.024Z,0.50
2017-12-14T00:42:24.462Z,0.60
2017-12-14T00:44:58.241Z,0.60
2017-12-14T00:47:31.379Z,0.60
2017-12-14T00:50:05.576Z,0.70
2017-12-14T00:52:38.364Z,0.70
2017-12-14T00:55:10.958Z,0.70
2017-12-14T00:57:43.462Z,0.80
2017-12-14T01:00:16.786Z,0.90
2017-12-14T01:02:49.314Z,0.90
2017-12-14T01:05:21.979Z,0.90
2017-12-14T01:07:56.197Z,1.10
2017-12-14T01:10:29.527Z,1.20
2017-12-14T01:13:03.898Z,1.30
2017-12-14T01:15:37.045Z,1.30
2017-12-14T01:18:09.661Z,1.40
2017-12-14T01:20:42.189Z,1.40
2017-12-14T01:23:14.693Z,1.50
2017-12-14T01:25:47.994Z,1.70
2017-12-14T01:28:20.497Z,1.70
2017-12-14T01:30:53.898Z,1.90
2017-12-14T01:33:31.167Z,1.90
2017-12-14T01:36:04.864Z,2.00
2017-12-14T01:38:37.743Z,1.90
2017-12-14T01:41:11.023Z,2.00
2017-12-14T01:43:44.298Z,2.10
2017-12-14T01:46:17.605Z,2.10
2017-12-14T01:48:50.107Z,2.10
2017-12-14T01:51:22.657Z,2.20
2017-12-14T01:53:56.233Z,2.20
2017-12-14T01:56:31.089Z,2.20
2017-12-14T01:59:04.407Z,2.20
2017-12-14T02:01:38.246Z,2.30
2017-12-14T02:04:10.753Z,2.30
2017-12-14T02:06:43.332Z,2.40
2017-12-14T02:09:15.838Z,2.40
2017-12-14T02:11:48.362Z,2.50
2017-12-14T02:14:20.865Z,2.50
2017-12-14T02:16:53.598Z,2.50
2017-12-14T02:19:28.083Z,2.50
2017-12-14T02:22:00.963Z,2.60
2017-12-14T02:24:33.755Z,2.60
2017-12-14T02:27:06.722Z,2.60
2017-12-14T02:29:39.485Z,2.60
2017-12-14T02:32:12.862Z,2.60
2017-12-14T02:34:46.129Z,2.60
2017-12-14T02:37:18.853Z,2.60
2017-12-14T02:39:51.500Z,2.60
2017-12-14T02:42:24.226Z,2.60
2017-12-14T02:45:01.027Z,2.60
2017-12-14T02:47:34.187Z,2.60
2017-12-14T02:50:06.853Z,2.50
2017-12-14T02:52:39.376Z,2.50
2017-12-14T02:55:11.886Z,2.50
2017-12-14T02:57:44.441Z,2.50
2017-12-14T03:00:16.936Z,2.50
2017-12-14T03:02:49.467Z,2.50
2017-12-14T03:05:21.978Z,2.40
2017-12-14T03:07:55.109Z,2.40
2017-12-14T03:10:31.154Z,2.40
2017-12-14T03:13:04.839Z,2.40
2017-12-14T03:15:38.628Z,2.40
2017-12-14T03:18:11.247Z,2.40
2017-12-14T03:20:43.835Z,2.40
2017-12-14T03:23:17.158Z,2.50
2017-12-14T03:25:50.433Z,2.50
2017-12-14T03:28:23.002Z,2.50
2017-12-14T03:31:01.609Z,2.50
2017-12-14T03:33:35.289Z,2.50
2017-12-14T03:36:09.309Z,2.50
2017-12-14T03:38:42.637Z,2.60
2017-12-14T03:41:15.909Z,2.60
2017-12-14T03:43:50.785Z,2.60
2017-12-14T03:46:24.257Z,2.50
2017-12-14T03:48:59.888Z,2.50
2017-12-14T03:51:33.048Z,2.50
2017-12-14T03:54:06.056Z,2.50
2017-12-14T03:56:39.692Z,2.50
2017-12-14T03:59:12.986Z,2.40
2017-12-14T04:01:46.256Z,2.50
2017-12-14T04:04:18.797Z,2.40
2017-12-14T04:06:52.069Z,2.40
2017-12-14T04:09:25.368Z,2.40
2017-12-14T04:12:00.929Z,2.50
2017-12-14T04:14:33.962Z,2.40
2017-12-14T04:17:09.191Z,2.50
2017-12-14T04:19:42.197Z,2.50
2017-12-14T04:22:14.714Z,2.40
2017-12-14T04:24:47.261Z,2.40
2017-12-14T04:27:19.769Z,2.30
2017-12-14T04:29:52.294Z,2.30
2017-12-14T04:32:28.566Z,2.20
2017-12-14T04:35:04.054Z,2.00
2017-12-14T04:37:40.738Z,2.00
2017-12-14T04:40:15.126Z,2.00
2017-12-14T04:42:48.575Z,2.00
2017-12-14T04:45:22.526Z,2.00
2017-12-14T04:47:56.670Z,2.00
2017-12-14T04:50:33.042Z,2.10
2017-12-14T04:53:06.544Z,2.10
2017-12-14T04:55:41.806Z,2.20
2017-12-14T04:58:15.230Z,2.20
2017-12-14T05:00:47.757Z,2.10
2017-12-14T05:03:20.269Z,2.10
2017-12-14T05:05:52.794Z,2.10
2017-12-14T05:08:28.879Z,2.20
2017-12-14T05:11:04.048Z,2.20
2017-12-14T05:13:37.387Z,2.20
2017-12-14T05:16:11.076Z,2.20
2017-12-14T05:18:43.636Z,2.30
2017-12-14T05:21:17.076Z,2.30
2017-12-14T05:23:49.576Z,2.30
2017-12-14T05:26:22.105Z,2.30
2017-12-14T05:28:55.816Z,2.30
2017-12-14T05:31:31.075Z,2.30
2017-12-14T05:34:03.978Z,2.30
2017-12-14T05:36:37.798Z,2.30
2017-12-14T05:39:10.777Z,2.30
2017-12-14T05:41:43.301Z,2.30
2017-12-14T05:44:16.997Z,2.30
2017-12-14T05:46:50.661Z,2.30
2017-12-14T05:49:23.484Z,2.30
2017-12-14T05:51:59.127Z,2.30
2017-12-14T05:54:33.702Z,2.40
2017-12-14T05:57:07.254Z,2.30
2017-12-14T05:59:40.654Z,2.30
2017-12-14T06:02:13.945Z,2.20
2017-12-14T06:04:46.454Z,2.20
2017-12-14T06:07:19.742Z,2.20
2017-12-14T06:09:52.248Z,2.10
2017-12-14T06:12:32.493Z,2.10
2017-12-14T06:15:05.749Z,2.10
2017-12-14T06:17:38.809Z,2.10
2017-12-14T06:20:12.105Z,2.10
2017-12-14T06:22:44.631Z,2.00
2017-12-14T06:25:17.927Z,2.00
2017-12-14T06:27:50.609Z,1.90
2017-12-14T06:30:23.129Z,1.90
2017-12-14T06:33:00.247Z,1.90
2017-12-14T06:35:36.313Z,1.90
2017-12-14T06:38:10.012Z,1.90
2017-12-14T06:40:43.923Z,1.90
2017-12-14T06:43:17.228Z,1.90
2017-12-14T06:45:50.509Z,1.90
2017-12-14T06:48:23.190Z,1.90
2017-12-14T06:51:02.938Z,1.90
2017-12-14T06:53:36.219Z,1.90
2017-12-14T06:56:09.831Z,1.90
2017-12-14T06:58:43.147Z,1.80
2017-12-14T07:01:15.659Z,1.80
2017-12-14T07:03:48.479Z,1.90
2017-12-14T07:06:21.054Z,1.90
2017-12-14T07:08:53.815Z,1.80
2017-12-14T07:11:30.521Z,1.80
2017-12-14T07:14:04.036Z,1.80
2017-12-14T07:16:37.640Z,1.80
2017-12-14T07:19:10.965Z,1.80
2017-12-14T07:21:43.471Z,1.70
2017-12-14T07:24:15.994Z,1.70
2017-12-14T07:26:48.536Z,1.70
2017-12-14T07:29:21.976Z,1.60
2017-12-14T07:31:54.926Z,1.60
2017-12-14T07:34:32.198Z,1.70
2017-12-14T07:37:05.909Z,1.70
2017-12-14T07:39:39.123Z,1.70
2017-12-14T07:42:25.599Z,1.80
2017-12-14T07:48:11.040Z,1.80
2017-12-14T07:50:44.330Z,1.90
2017-12-14T07:53:16.838Z,1.90
2017-12-14T07:55:50.128Z,2.00
2017-12-14T07:58:22.637Z,2.00
2017-12-14T08:01:00.508Z,2.10
2017-12-14T08:03:34.262Z,2.10
2017-12-14T08:06:08.097Z,2.20
2017-12-14T08:08:41.297Z,2.10
2017-12-14T08:11:14.609Z,2.20
2017-12-14T08:13:47.885Z,2.20
2017-12-14T08:16:20.413Z,2.20
2017-12-14T08:18:52.933Z,2.30
2017-12-14T08:21:28.829Z,2.30
2017-12-14T08:24:04.581Z,2.30
2017-12-14T08:26:37.967Z,2.40
2017-12-14T08:29:11.486Z,2.40
2017-12-14T08:31:44.012Z,2.40
2017-12-14T08:34:16.526Z,2.50
2017-12-14T08:36:49.827Z,2.50
2017-12-14T08:39:23.107Z,2.50
2017-12-14T08:41:59.266Z,2.50
2017-12-14T08:44:35.130Z,2.60
2017-12-14T08:47:09.304Z,2.60
2017-12-14T08:49:42.204Z,2.60
2017-12-14T08:52:15.509Z,2.60
2017-12-14T08:54:48.802Z,2.50
2017-12-14T08:57:21.700Z,2.50
2017-12-14T08:59:55.229Z,2.50
2017-12-14T09:02:32.269Z,2.50
2017-12-14T09:05:05.353Z,2.60
2017-12-14T09:07:38.585Z,2.60
2017-12-14T09:10:11.681Z,2.60
2017-12-14T09:12:44.208Z,2.60
2017-12-14T09:15:16.708Z,2.60
2017-12-14T09:17:49.997Z,2.60
2017-12-14T09:20:24.007Z,2.70
2017-12-14T09:22:58.703Z,2.70
2017-12-14T09:25:33.032Z,2.60
2017-12-14T09:28:06.422Z,2.70
2017-12-14T09:30:40.992Z,2.70
2017-12-14T09:33:14.338Z,2.70
2017-12-14T09:35:46.833Z,2.70
2017-12-14T09:38:20.163Z,2.70
2017-12-14T09:40:54.032Z,2.60
2017-12-14T09:43:34.485Z,2.60
2017-12-14T09:46:07.884Z,2.60
2017-12-14T09:48:41.156Z,2.50
2017-12-14T09:51:13.671Z,2.50
2017-12-14T09:53:46.196Z,2.50
2017-12-14T09:56:18.701Z,2.40
2017-12-14T09:58:51.224Z,2.40
2017-12-14T10:01:24.502Z,2.40
2017-12-14T10:04:03.707Z,2.30
2017-12-14T10:06:39.241Z,2.30
2017-12-14T10:09:12.346Z,2.30
2017-12-14T10:11:50.203Z,2.30
2017-12-14T10:14:23.049Z,2.30
2017-12-14T10:17:00.559Z,2.30
2017-12-14T10:19:34.584Z,2.30
2017-12-14T10:22:08.770Z,2.20
2017-12-14T10:24:42.233Z,2.20
2017-12-14T10:27:15.535Z,2.20
2017-12-14T10:29:48.805Z,2.20
2017-12-14T10:32:22.721Z,2.20
2017-12-14T10:35:02.338Z,2.10
2017-12-14T10:37:37.464Z,2.10
2017-12-14T10:40:11.790Z,2.10
2017-12-14T10:42:44.309Z,2.10
2017-12-14T10:45:16.829Z,2.20
2017-12-14T10:47:50.021Z,2.20
2017-12-14T10:50:23.649Z,2.10
2017-12-14T10:53:02.241Z,2.10
2017-12-14T10:55:35.352Z,2.10
2017-12-14T10:58:09.872Z,2.10
2017-12-14T11:00:49.036Z,2.10
2017-12-14T11:03:21.556Z,2.10
2017-12-14T11:05:54.992Z,2.20
2017-12-14T11:08:34.065Z,2.10
2017-12-14T11:11:07.456Z,2.20
2017-12-14T11:13:41.238Z,2.20
2017-12-14T11:16:14.977Z,2.10
2017-12-14T11:18:50.049Z,2.10
2017-12-14T11:21:23.385Z,2.10
2017-12-14T11:24:03.766Z,2.10
2017-12-14T11:26:38.348Z,2.10
2017-12-14T11:29:12.433Z,2.10
2017-12-14T11:31:46.072Z,2.00
2017-12-14T11:34:18.600Z,2.10
2017-12-14T11:36:52.054Z,2.10
2017-12-14T11:39:27.328Z,2.10
2017-12-14T11:42:05.145Z,2.10
2017-12-14T11:44:38.968Z,2.10
2017-12-14T11:47:11.620Z,2.10
2017-12-14T11:49:44.160Z,2.10
2017-12-14T11:52:16.660Z,2.10
2017-12-14T11:54:49.188Z,2.10
2017-12-14T11:57:23.260Z,2.20
2017-12-14T12:00:06.564Z,2.20
2017-12-14T12:02:39.836Z,2.20
2017-12-14T12:05:13.782Z,2.20
2017-12-14T12:07:46.497Z,2.20
2017-12-14T12:10:19.049Z,2.20
2017-12-14T12:12:51.541Z,2.20
2017-12-14T12:15:25.294Z,2.20
2017-12-14T12:18:04.041Z,2.20
2017-12-14T12:20:38.799Z,2.20
2017-12-14T12:23:11.350Z,2.20
2017-12-14T12:25:43.872Z,2.20
2017-12-14T12:28:16.381Z,2.20
2017-12-14T12:30:48.913Z,2.20
2017-12-14T12:33:21.422Z,2.20
2017-12-14T12:35:53.949Z,2.20
2017-12-14T12:38:33.230Z,2.20
2017-12-14T12:41:06.425Z,2.20
2017-12-14T12:43:40.094Z,2.20
2017-12-14T12:46:13.048Z,2.30
2017-12-14T12:48:46.425Z,2.30
2017-12-14T12:51:19.412Z,2.20
2017-12-14T12:53:51.933Z,2.30
2017-12-14T12:56:24.707Z,2.20
2017-12-14T12:59:02.433Z,2.20
2017-12-14T13:01:35.723Z,2.20
2017-12-14T13:04:09.209Z,2.20
2017-12-14T13:06:42.357Z,2.20
2017-12-14T13:09:14.873Z,2.20
2017-12-14T13:11:48.161Z,2.20
2017-12-14T13:14:20.662Z,2.10
2017-12-14T13:16:53.953Z,2.10
2017-12-14T13:19:38.331Z,2.10
2017-12-14T13:22:11.833Z,2.10
2017-12-14T13:24:44.338Z,2.10
2017-12-14T13:27:16.860Z,2.10
2017-12-14T13:29:49.366Z,2.10
2017-12-14T13:32:23.684Z,2.10
2017-12-14T13:35:02.577Z,2.10
2017-12-14T13:37:38.485Z,2.10
2017-12-14T13:40:12.603Z,2.10
2017-12-14T13:42:46.008Z,2.10
2017-12-14T13:45:18.511Z,2.00
2017-12-14T13:47:51.273Z,2.00
2017-12-14T13:50:23.853Z,2.00
2017-12-14T13:53:03.922Z,2.00
2017-12-14T13:55:37.828Z,2.00
2017-12-14T13:58:10.917Z,2.00
2017-12-14T14:00:44.205Z,2.00
2017-12-14T14:03:16.804Z,1.90
2017-12-14T14:05:49.319Z,1.90
2017-12-14T14:08:21.847Z,1.90
2017-12-14T14:10:56.646Z,1.90
2017-12-14T14:13:33.728Z,1.90
2017-12-14T14:16:06.767Z,1.90
2017-12-14T14:18:40.110Z,1.80
2017-12-14T14:21:13.405Z,1.70
2017-12-14T14:23:45.937Z,1.70
2017-12-14T14:26:18.440Z,1.60
2017-12-14T14:28:50.957Z,1.60
2017-12-14T14:31:23.456Z,1.50
2017-12-14T14:33:58.492Z,1.50
2017-12-14T14:36:33.146Z,1.50
2017-12-14T14:39:06.348Z,1.50
2017-12-14T14:41:41.159Z,1.60
2017-12-14T14:44:13.778Z,1.60
2017-12-14T14:46:46.283Z,1.60
2017-12-14T14:49:21.311Z,1.60
2017-12-14T14:51:54.007Z,1.60
2017-12-14T14:54:31.801Z,1.50
2017-12-14T14:57:06.633Z,1.50
2017-12-14T14:59:40.585Z,1.40
2017-12-14T15:02:13.107Z,1.40
2017-12-14T15:04:45.645Z,1.30
2017-12-14T15:07:18.203Z,1.20
2017-12-14T15:09:50.737Z,1.20
2017-12-14T15:12:23.923Z,1.20
2017-12-14T15:14:57.467Z,1.20
2017-12-14T15:17:32.749Z,1.10
2017-12-14T15:20:06.427Z,1.10
2017-12-14T15:22:39.604Z,1.10
2017-12-14T15:25:12.409Z,1.10
2017-12-14T15:27:44.932Z,1.10
2017-12-14T15:30:18.216Z,1.20
2017-12-14T15:32:50.720Z,1.20
2017-12-14T15:35:24.700Z,1.20
2017-12-14T15:38:01.295Z,1.20
2017-12-14T15:40:34.729Z,1.20
2017-12-14T15:43:09.291Z,1.30
2017-12-14T15:45:41.986Z,1.30
2017-12-14T15:48:15.273Z,1.40
2017-12-14T15:50:47.805Z,1.40
2017-12-14T15:53:20.321Z,1.40
2017-12-14T15:55:52.905Z,1.50
2017-12-14T15:58:30.724Z,1.60
2017-12-14T16:01:05.525Z,1.60
2017-12-14T16:03:39.245Z,1.60
2017-12-14T16:06:12.160Z,1.60
2017-12-14T16:08:44.672Z,1.60
2017-12-14T16:11:17.202Z,1.60
2017-12-14T16:13:50.883Z,1.50
2017-12-14T16:16:24.198Z,1.50
2017-12-14T16:19:01.330Z,1.50
2017-12-14T16:21:36.175Z,1.50
2017-12-14T16:24:11.018Z,1.50
2017-12-14T16:26:44.311Z,1.50
2017-12-14T16:29:16.809Z,1.50
2017-12-14T16:31:52.190Z,1.50
2017-12-14T16:34:28.065Z,1.50
2017-12-14T16:37:04.397Z,1.50
2017-12-14T16:39:38.320Z,1.50
2017-12-14T16:42:10.946Z,1.50
2017-12-14T16:44:44.181Z,1.40
2017-12-14T16:47:16.720Z,1.50
2017-12-14T16:49:49.994Z,1.40
2017-12-14T16:52:22.524Z,1.40
2017-12-14T16:54:59.234Z,1.40
2017-12-14T16:57:32.405Z,1.50
2017-12-14T17:00:05.684Z,1.50
2017-12-14T17:02:39.000Z,1.50
2017-12-14T17:05:11.514Z,1.50
2017-12-14T17:07:44.153Z,1.50
2017-12-14T17:10:21.264Z,1.50
2017-12-14T17:12:54.565Z,1.50
2017-12-14T17:15:28.103Z,1.40
2017-12-14T17:20:40.269Z,1.40
2017-12-14T17:23:12.809Z,1.50
2017-12-14T17:25:50.947Z,1.50
2017-12-14T17:28:25.133Z,1.50
2017-12-14T17:30:58.574Z,1.50
2017-12-14T17:33:31.454Z,1.60
2017-12-14T17:36:03.965Z,1.60
2017-12-14T17:38:37.280Z,1.60
2017-12-14T17:41:09.781Z,1.60
2017-12-14T17:43:42.319Z,1.60
2017-12-14T17:46:15.537Z,1.60
2017-12-14T17:48:50.514Z,1.60
2017-12-14T17:51:24.185Z,1.60
2017-12-14T17:53:58.047Z,1.60
2017-12-14T17:56:31.390Z,1.60
2017-12-14T17:59:03.923Z,1.60
2017-12-14T18:01:36.433Z,1.60
2017-12-14T18:04:08.954Z,1.60
2017-12-14T18:06:41.466Z,1.70
2017-12-14T18:09:14.378Z,1.70
2017-12-14T18:11:50.128Z,1.70
2017-12-14T18:14:24.053Z,1.70
2017-12-14T18:16:57.032Z,1.70
2017-12-14T18:19:30.327Z,1.70
2017-12-14T18:22:02.900Z,1.70
2017-12-14T18:24:36.218Z,1.70
2017-12-14T18:27:09.493Z,1.70
2017-12-14T18:29:42.740Z,1.70
2017-12-14T18:32:18.954Z,1.80
2017-12-14T18:34:52.926Z,1.80
2017-12-14T18:37:26.756Z,1.80
2017-12-14T18:40:01.164Z,1.80
2017-12-14T18:42:34.464Z,1.80
2017-12-14T18:45:07.557Z,1.80
2017-12-14T18:47:40.124Z,1.80
2017-12-14T18:50:12.653Z,1.80
2017-12-14T18:52:47.827Z,1.80
2017-12-14T18:55:23.100Z,1.80
2017-12-14T18:57:56.207Z,1.80
2017-12-14T19:00:29.136Z,1.80
2017-12-14T19:03:01.745Z,1.80
2017-12-14T19:05:34.286Z,1.80
2017-12-14T19:08:06.798Z,1.80
2017-12-14T19:10:39.431Z,1.80
2017-12-14T19:13:12.713Z,1.80
2017-12-14T19:15:46.165Z,1.80
2017-12-14T19:18:21.940Z,1.80
2017-12-14T19:20:55.896Z,1.80
2017-12-14T19:23:29.172Z,1.80
2017-12-14T19:26:01.927Z,1.80
2017-12-14T19:28:35.223Z,1.70
2017-12-14T19:31:07.733Z,1.70
2017-12-14T19:33:41.038Z,1.70
2017-12-14T19:36:15.767Z,1.70
2017-12-14T19:38:52.190Z,1.70
2017-12-14T19:41:27.275Z,1.70
2017-12-14T19:44:00.897Z,1.60
2017-12-14T19:46:33.417Z,1.70
2017-12-14T19:49:06.723Z,1.60
2017-12-14T19:51:39.996Z,1.60
2017-12-14T19:54:12.526Z,1.60
2017-12-14T19:56:47.349Z,1.60
